createdAt,value
2022-09-23T00:03:17.523Z,13.40
2022-09-23T00:08:21.718Z,13.40
2022-09-23T00:13:24.790Z,13.10
2022-09-23T00:18:27.666Z,13.00
2022-09-23T00:23:32.336Z,13.10
2022-09-23T00:28:35.628Z,13.00
2022-09-23T00:33:39.384Z,12.70
2022-09-23T00:38:44.157Z,12.70
2022-09-23T00:43:49.980Z,12.80
2022-09-23T00:48:58.136Z,12.80
2022-09-23T00:54:03.079Z,12.90
2022-09-23T00:59:07.106Z,12.90
2022-09-23T01:04:10.347Z,12.80
2022-09-23T01:09:14.555Z,12.70
2022-09-23T01:14:32.117Z,12.70
2022-09-23T01:20:10.284Z,12.60
2022-09-23T01:25:33.939Z,12.60
2022-09-23T01:30:48.369Z,12.50
2022-09-23T01:36:16.492Z,12.60
2022-09-23T01:41:35.096Z,12.40
2022-09-23T01:46:45.716Z,12.40
2022-09-23T01:51:54.062Z,12.30
2022-09-23T01:57:01.788Z,12.20
2022-09-23T02:02:10.886Z,12.20
2022-09-23T02:07:20.297Z,12.20
2022-09-23T02:12:28.540Z,12.30
2022-09-23T02:17:38.408Z,12.30
2022-09-23T02:22:50.131Z,12.30
2022-09-23T02:28:01.194Z,12.30
2022-09-23T02:33:11.273Z,12.10
2022-09-23T02:38:24.321Z,12.10
2022-09-23T02:43:35.674Z,11.90
2022-09-23T02:48:44.050Z,11.90
2022-09-23T02:53:47.566Z,12.00
2022-09-23T02:58:52.355Z,11.80
2022-09-23T03:04:06.770Z,11.80
2022-09-23T03:09:15.869Z,11.80
2022-09-23T03:14:27.367Z,11.80
2022-09-23T03:19:34.606Z,11.70
2022-09-23T03:24:39.383Z,11.60
2022-09-23T03:29:47.133Z,11.70
2022-09-23T03:34:54.511Z,11.80
2022-09-23T03:40:02.770Z,11.70
2022-09-23T03:45:09.264Z,11.60
2022-09-23T03:50:14.792Z,11.70
2022-09-23T03:55:18.646Z,11.80
2022-09-23T04:00:21.607Z,11.70
2022-09-23T04:05:25.849Z,11.70
2022-09-23T04:10:28.752Z,11.60
2022-09-23T04:15:31.587Z,11.60
2022-09-23T04:20:35.767Z,11.60
2022-09-23T04:25:45.796Z,11.50
2022-09-23T04:30:49.027Z,11.40
2022-09-23T04:35:53.658Z,11.30
2022-09-23T04:40:56.787Z,11.30
2022-09-23T04:46:01.403Z,11.20
2022-09-23T04:51:07.218Z,11.00
2022-09-23T04:56:12.548Z,11.00
2022-09-23T05:01:18.127Z,11.10
2022-09-23T05:06:22.852Z,11.00
2022-09-23T05:11:26.583Z,11.10
2022-09-23T05:16:29.648Z,10.90
2022-09-23T05:21:33.975Z,10.90
2022-09-23T05:26:36.814Z,11.00
2022-09-23T05:31:39.703Z,11.00
2022-09-23T05:36:43.900Z,10.60
2022-09-23T05:41:46.716Z,10.60
2022-09-23T05:46:49.627Z,10.70
2022-09-23T05:51:53.823Z,10.60
2022-09-23T05:56:58.376Z,10.90
2022-09-23T06:02:02.170Z,10.90
2022-09-23T06:07:06.499Z,11.00
2022-09-23T06:12:09.314Z,11.00
2022-09-23T06:17:12.179Z,11.00
2022-09-23T06:22:18.562Z,11.10
2022-09-23T06:27:21.416Z,11.30
2022-09-23T06:32:24.334Z,11.40
2022-09-23T06:37:28.645Z,11.40
2022-09-23T06:42:31.480Z,11.50
2022-09-23T06:47:34.406Z,11.50
2022-09-23T06:52:38.591Z,11.40
2022-09-23T06:57:41.477Z,11.50
2022-09-23T07:02:44.415Z,11.60
2022-09-23T07:07:49.200Z,11.70
2022-09-23T07:12:54.131Z,11.80
2022-09-23T07:17:57.378Z,11.90
2022-09-23T07:23:04.500Z,12.00
2022-09-23T07:28:07.975Z,12.10
2022-09-23T07:33:27.045Z,12.20
2022-09-23T07:38:34.303Z,12.40
2022-09-23T07:43:37.862Z,12.40
2022-09-23T07:48:41.014Z,12.50
2022-09-23T07:53:48.126Z,12.60
2022-09-23T07:59:00.093Z,12.60
2022-09-23T08:04:05.898Z,12.60
2022-09-23T08:09:10.526Z,12.60
2022-09-23T08:14:15.175Z,12.90
2022-09-23T08:19:18.465Z,12.90
2022-09-23T08:24:24.250Z,13.00
2022-09-23T08:29:27.434Z,13.30
2022-09-23T08:34:30.374Z,13.40
2022-09-23T08:39:34.741Z,13.50
2022-09-23T08:44:47.642Z,13.70
2022-09-23T08:49:58.483Z,13.80
2022-09-23T08:55:03.367Z,14.00
2022-09-23T09:00:07.528Z,14.10
2022-09-23T09:05:26.800Z,14.20
2022-09-23T09:10:38.898Z,14.30
2022-09-23T09:15:49.196Z,14.70
2022-09-23T09:21:00.218Z,15.00
2022-09-23T09:26:06.956Z,15.20
2022-09-23T09:31:25.362Z,15.10
2022-09-23T09:36:35.938Z,15.00
2022-09-23T09:41:42.765Z,15.20
2022-09-23T09:47:16.097Z,15.50
2022-09-23T09:52:24.280Z,15.90
2022-09-23T09:57:38.599Z,16.10
2022-09-23T10:02:42.339Z,16.20
2022-09-23T10:07:49.489Z,16.40
2022-09-23T10:12:54.018Z,16.30
2022-09-23T10:17:56.889Z,16.30
2022-09-23T10:23:07.652Z,16.40
2022-09-23T10:28:43.119Z,16.60
2022-09-23T10:33:50.142Z,16.60
2022-09-23T10:39:17.050Z,16.90
2022-09-23T10:44:50.870Z,17.30
2022-09-23T10:50:09.715Z,17.60
2022-09-23T10:55:27.267Z,17.60
2022-09-23T11:00:41.268Z,17.60
2022-09-23T11:05:53.623Z,17.80
2022-09-23T11:11:09.904Z,18.00
2022-09-23T11:16:25.638Z,18.10
2022-09-23T11:21:57.060Z,18.00
2022-09-23T11:27:12.127Z,18.40
2022-09-23T11:32:38.480Z,18.40
2022-09-23T11:37:48.329Z,18.60
2022-09-23T11:42:58.024Z,18.30
2022-09-23T11:48:06.710Z,18.40
2022-09-23T11:53:19.229Z,18.70
2022-09-23T11:58:27.045Z,18.90
2022-09-23T12:03:44.857Z,18.90
2022-09-23T12:08:59.982Z,19.00
2022-09-23T12:14:13.990Z,19.10
2022-09-23T12:19:32.422Z,19.10
2022-09-23T12:24:55.495Z,19.10
2022-09-23T12:30:02.681Z,19.20
2022-09-23T12:35:07.726Z,19.50
2022-09-23T12:40:21.465Z,19.60
2022-09-23T12:45:39.715Z,19.70
2022-09-23T12:50:52.604Z,19.80
2022-09-23T12:55:55.922Z,19.90
2022-09-23T13:01:09.895Z,20.00
2022-09-23T13:06:31.854Z,20.20
2022-09-23T13:11:40.363Z,20.10
2022-09-23T13:16:45.601Z,20.10
2022-09-23T13:22:08.824Z,20.10
2022-09-23T13:27:17.011Z,20.20
2022-09-23T13:32:22.286Z,20.30
2022-09-23T13:37:32.253Z,20.20
2022-09-23T13:42:37.776Z,20.30
2022-09-23T13:47:43.896Z,20.40
2022-09-23T13:52:53.408Z,20.40
2022-09-23T13:58:01.371Z,20.40
2022-09-23T14:03:16.689Z,20.40
2022-09-23T14:08:21.510Z,20.50
2022-09-23T14:13:27.276Z,20.60
2022-09-23T14:18:35.561Z,20.70
2022-09-23T14:23:46.863Z,20.80
2022-09-23T14:28:50.375Z,20.70
2022-09-23T14:33:53.686Z,20.70
2022-09-23T14:39:05.064Z,20.60
2022-09-23T14:44:08.926Z,20.60
2022-09-23T14:49:18.112Z,20.50
2022-09-23T14:54:36.819Z,20.40
2022-09-23T14:59:51.408Z,20.40
2022-09-23T15:05:09.558Z,20.50
2022-09-23T15:10:23.369Z,20.30
2022-09-23T15:15:29.008Z,20.30
2022-09-23T15:20:37.974Z,20.30
2022-09-23T15:25:43.000Z,20.30
2022-09-23T15:30:46.153Z,20.30
2022-09-23T15:35:50.229Z,19.90
2022-09-23T15:40:54.946Z,19.70
2022-09-23T15:45:59.942Z,19.80
2022-09-23T15:51:06.870Z,19.80
2022-09-23T15:56:11.087Z,19.70
2022-09-23T16:01:21.774Z,19.80
2022-09-23T16:06:25.885Z,19.80
2022-09-23T16:11:34.503Z,20.00
2022-09-23T16:16:37.529Z,20.00
2022-09-23T16:21:44.926Z,19.90
2022-09-23T16:27:06.515Z,19.90
2022-09-23T16:32:16.875Z,19.70
2022-09-23T16:37:22.103Z,19.60
2022-09-23T16:42:29.693Z,19.60
2022-09-23T16:47:32.860Z,19.60
2022-09-23T16:52:39.452Z,19.60
2022-09-23T16:57:44.620Z,19.70
2022-09-23T17:03:09.250Z,19.70
2022-09-23T17:08:13.382Z,19.60
2022-09-23T17:13:32.452Z,19.60
2022-09-23T17:18:38.894Z,19.30
2022-09-23T17:23:42.990Z,19.40
2022-09-23T17:28:52.087Z,19.40
2022-09-23T17:34:08.340Z,19.20
2022-09-23T17:39:15.212Z,19.20
2022-09-23T17:44:38.801Z,19.20
2022-09-23T17:49:42.897Z,19.10
2022-09-23T17:54:59.319Z,19.00
2022-09-23T18:00:04.678Z,18.90
2022-09-23T18:05:33.265Z,18.90
2022-09-23T18:10:36.403Z,18.80
2022-09-23T18:15:49.377Z,18.60
2022-09-23T18:20:52.850Z,18.60
2022-09-23T18:25:55.965Z,18.60
2022-09-23T18:31:06.862Z,18.50
2022-09-23T18:43:06.638Z,18.40
2022-09-23T18:48:29.485Z,18.30
2022-09-23T18:53:33.470Z,18.20
2022-09-23T18:58:36.500Z,18.10
2022-09-23T19:03:40.877Z,17.60
2022-09-23T19:08:45.349Z,17.70
2022-09-23T19:13:55.344Z,17.80
2022-09-23T19:19:00.615Z,17.80
2022-09-23T19:24:06.532Z,17.60
2022-09-23T19:29:14.330Z,17.50
2022-09-23T19:34:29.094Z,17.60
2022-09-23T19:39:37.577Z,17.20
2022-09-23T19:44:46.827Z,17.30
2022-09-23T19:49:53.807Z,16.90
2022-09-23T19:55:01.471Z,17.20
2022-09-23T20:00:06.020Z,17.30
2022-09-23T20:05:20.547Z,17.60
2022-09-23T20:10:24.387Z,17.50
2022-09-23T20:15:29.037Z,17.40
2022-09-23T20:20:33.709Z,17.30
2022-09-23T20:26:01.209Z,17.30
2022-09-23T20:31:04.220Z,17.20
2022-09-23T20:36:09.167Z,17.20
2022-09-23T20:41:12.059Z,17.10
2022-09-23T20:46:16.308Z,17.10
2022-09-23T20:51:20.899Z,17.00
2022-09-23T20:56:25.375Z,17.00
2022-09-23T21:01:28.690Z,17.00
2022-09-23T21:06:35.035Z,17.00
2022-09-23T21:11:38.219Z,16.80
2022-09-23T21:16:41.535Z,16.80
2022-09-23T21:21:45.821Z,16.80
2022-09-23T21:26:50.430Z,16.80
2022-09-23T21:31:53.535Z,16.70
2022-09-23T21:36:57.808Z,16.20
2022-09-23T21:42:01.495Z,16.10
2022-09-23T21:47:04.406Z,16.30
2022-09-23T21:52:08.693Z,16.40
2022-09-23T21:57:12.278Z,16.40
2022-09-23T22:02:15.854Z,16.30
2022-09-23T22:07:20.981Z,16.30
2022-09-23T22:12:24.094Z,16.30
2022-09-23T22:17:26.980Z,16.20
2022-09-23T22:22:31.195Z,16.30
2022-09-23T22:27:54.029Z,16.30
2022-09-23T22:32:58.045Z,16.20
2022-09-23T22:38:02.275Z,15.80
2022-09-23T22:43:05.187Z,15.80
2022-09-23T22:48:08.085Z,15.70
2022-09-23T22:53:12.792Z,15.90
2022-09-23T22:58:31.718Z,16.00
2022-09-23T23:03:36.209Z,16.00
2022-09-23T23:08:40.627Z,15.90
2022-09-23T23:13:43.989Z,15.30
2022-09-23T23:18:47.687Z,15.60
2022-09-23T23:23:53.584Z,15.60
2022-09-23T23:28:56.963Z,15.70
2022-09-23T23:33:59.951Z,15.80
2022-09-23T23:39:04.484Z,15.90
2022-09-23T23:44:07.846Z,15.80
2022-09-23T23:49:10.739Z,15.80
2022-09-23T23:54:15.637Z,15.80
2022-09-23T23:59:20.131Z,15.80
